createdAt,value
2022-10-21T00:00:57.755Z,100466.22
2022-10-21T00:02:06.160Z,100471.56
2022-10-21T00:03:08.146Z,100463.69
2022-10-21T00:04:10.675Z,100463.53
2022-10-21T00:05:12.693Z,100451.34
2022-10-21T00:06:15.180Z,100454.84
2022-10-21T00:07:16.744Z,100449.50
2022-10-21T00:08:21.925Z,100451.16
2022-10-21T00:09:23.451Z,100454.84
2022-10-21T00:10:26.047Z,100460.19
2022-10-21T00:11:27.612Z,100461.19
2022-10-21T00:12:30.688Z,100467.50
2022-10-21T00:13:34.081Z,100451.47
2022-10-21T00:14:37.007Z,100448.13
2022-10-21T00:15:38.739Z,100458.78
2022-10-21T00:16:41.228Z,100453.78
2022-10-21T00:17:43.279Z,100455.59
2022-10-21T00:18:47.506Z,100454.09
2022-10-21T00:19:49.415Z,100452.22
2022-10-21T00:20:52.042Z,100449.72
2022-10-21T00:21:53.594Z,100456.91
2022-10-21T00:22:56.127Z,100460.56
2022-10-21T00:23:59.072Z,100451.75
2022-10-21T00:25:01.901Z,100454.41
2022-10-21T00:26:03.549Z,100450.72
2022-10-21T00:27:06.093Z,100449.06
2022-10-21T00:28:07.670Z,100442.72
2022-10-21T00:29:10.476Z,100458.59
2022-10-21T00:30:13.488Z,100454.09
2022-10-21T00:31:17.203Z,100454.75
2022-10-21T00:32:18.831Z,100456.59
2022-10-21T00:33:22.108Z,100452.09
2022-10-21T00:34:27.040Z,100453.78
2022-10-21T00:35:34.603Z,100456.44
2022-10-21T00:36:36.156Z,100447.41
2022-10-21T00:37:38.978Z,100448.44
2022-10-21T00:38:41.679Z,100451.09
2022-10-21T00:39:45.543Z,100452.09
2022-10-21T00:40:47.168Z,100447.72
2022-10-21T00:41:49.696Z,100451.41
2022-10-21T00:42:51.212Z,100448.75
2022-10-21T00:43:58.822Z,100451.41
2022-10-21T00:45:17.229Z,100450.72
2022-10-21T00:46:19.760Z,100453.38
2022-10-21T00:47:22.364Z,100452.72
2022-10-21T00:48:33.703Z,100458.72
2022-10-21T00:49:39.615Z,100458.06
2022-10-21T00:50:49.160Z,100448.38
2022-10-21T00:51:54.893Z,100453.72
2022-10-21T00:52:59.655Z,100446.69
2022-10-21T00:54:02.670Z,100450.38
2022-10-21T00:55:08.014Z,100450.19
2022-10-21T00:56:16.621Z,100436.00
2022-10-21T00:57:21.101Z,100441.50
2022-10-21T00:58:26.386Z,100443.34
2022-10-21T00:59:32.428Z,100441.66
2022-10-21T01:00:33.924Z,100437.34
2022-10-21T01:01:36.605Z,100434.66
2022-10-21T01:02:38.256Z,100431.28
2022-10-21T01:03:40.929Z,100427.78
2022-10-21T01:04:43.144Z,100435.78
2022-10-21T01:05:46.414Z,100422.63
2022-10-21T01:06:48.839Z,100428.94
2022-10-21T01:07:52.513Z,100428.94
2022-10-21T01:08:56.568Z,100432.63
2022-10-21T01:09:59.495Z,100427.44
2022-10-21T01:11:03.552Z,100429.25
2022-10-21T01:12:16.114Z,100432.91
2022-10-21T01:13:28.376Z,100430.41
2022-10-21T01:14:50.963Z,100427.06
2022-10-21T01:15:59.759Z,100417.38
2022-10-21T01:17:26.446Z,100422.84
2022-10-21T01:18:44.156Z,100418.69
2022-10-21T01:20:18.850Z,100425.00
2022-10-21T01:21:31.608Z,100411.81
2022-10-21T01:22:52.701Z,100419.13
2022-10-21T01:24:37.162Z,100407.78
2022-10-21T01:26:05.414Z,100405.28
2022-10-21T01:27:27.078Z,100400.09
2022-10-21T01:28:40.084Z,100410.09
2022-10-21T01:30:12.682Z,100399.44
2022-10-21T01:31:21.434Z,100398.72
2022-10-21T01:32:33.455Z,100398.72
2022-10-21T01:33:41.124Z,100401.38
2022-10-21T01:34:51.050Z,100407.75
2022-10-21T01:35:57.890Z,100396.22
2022-10-21T01:37:11.117Z,100398.06
2022-10-21T01:38:19.917Z,100385.69
2022-10-21T01:39:29.095Z,100393.69
2022-10-21T01:40:37.328Z,100391.03
2022-10-21T01:41:43.278Z,100384.00
2022-10-21T01:42:52.524Z,100384.00
2022-10-21T01:44:03.186Z,100385.03
2022-10-21T01:45:12.613Z,100388.53
2022-10-21T01:46:23.672Z,100380.66
2022-10-21T01:47:31.293Z,100386.00
2022-10-21T01:48:38.492Z,100388.69
2022-10-21T01:49:47.954Z,100379.81
2022-10-21T01:50:53.550Z,100386.84
2022-10-21T01:51:56.649Z,100382.66
2022-10-21T01:53:02.662Z,100378.97
2022-10-21T01:54:08.802Z,100378.19
2022-10-21T01:55:15.547Z,100379.81
2022-10-21T01:56:18.894Z,100374.66
2022-10-21T01:57:24.398Z,100372.84
2022-10-21T01:58:31.067Z,100373.66
2022-10-21T01:59:33.891Z,100373.66
2022-10-21T02:00:38.081Z,100377.34
2022-10-21T02:01:44.030Z,100371.81
2022-10-21T02:02:49.483Z,100368.31
2022-10-21T02:04:01.229Z,100361.31
2022-10-21T02:05:11.727Z,100362.97
2022-10-21T02:06:14.032Z,100364.97
2022-10-21T02:07:16.519Z,100364.97
2022-10-21T02:08:18.193Z,100358.78
2022-10-21T02:09:20.795Z,100357.81
2022-10-21T02:10:25.350Z,100358.78
2022-10-21T02:11:29.436Z,100359.63
2022-10-21T02:12:33.728Z,100357.94
2022-10-21T02:13:42.720Z,100361.31
2022-10-21T02:14:48.657Z,100352.47
2022-10-21T02:15:53.651Z,100340.97
2022-10-21T02:16:59.371Z,100348.97
2022-10-21T02:18:05.567Z,100334.63
2022-10-21T02:19:15.194Z,100332.94
2022-10-21T02:20:18.021Z,100345.31
2022-10-21T02:21:24.219Z,100343.63
2022-10-21T02:22:28.332Z,100327.63
2022-10-21T02:23:39.100Z,100340.97
2022-10-21T02:24:46.199Z,100329.31
2022-10-21T02:25:51.704Z,100334.63
2022-10-21T02:26:53.598Z,100339.97
2022-10-21T02:27:56.594Z,100328.28
2022-10-21T02:28:59.279Z,100335.31
2022-10-21T02:30:02.504Z,100325.63
2022-10-21T02:31:17.999Z,100331.78
2022-10-21T02:32:29.867Z,100326.63
2022-10-21T02:33:43.797Z,100323.78
2022-10-21T02:35:01.413Z,100331.78
2022-10-21T02:36:12.601Z,100332.63
2022-10-21T02:37:22.575Z,100330.16
2022-10-21T02:38:28.410Z,100337.97
2022-10-21T02:39:36.661Z,100330.94
2022-10-21T02:40:42.955Z,100335.47
2022-10-21T02:41:46.943Z,100334.63
2022-10-21T02:42:52.418Z,100334.63
2022-10-21T02:43:59.010Z,100333.78
2022-10-21T02:45:02.092Z,100327.63
2022-10-21T02:46:08.922Z,100338.28
2022-10-21T02:48:20.052Z,100341.09
2022-10-21T02:49:22.818Z,100341.09
2022-10-21T02:50:25.316Z,100335.94
2022-10-21T02:51:26.845Z,100335.75
2022-10-21T02:52:29.334Z,100326.94
2022-10-21T02:53:31.036Z,100339.44
2022-10-21T02:54:33.571Z,100338.59
2022-10-21T02:55:35.160Z,100339.44
2022-10-21T02:56:37.604Z,100334.13
2022-10-21T02:57:39.427Z,100337.75
2022-10-21T02:58:42.138Z,100343.94
2022-10-21T02:59:43.703Z,100344.94
2022-10-21T03:00:46.283Z,100338.59
2022-10-21T03:01:47.871Z,100327.94
2022-10-21T03:02:50.338Z,100327.94
2022-10-21T03:03:53.227Z,100334.13
2022-10-21T03:04:55.939Z,100336.59
2022-10-21T03:05:58.890Z,100330.44
2022-10-21T03:07:01.535Z,100336.78
2022-10-21T03:08:03.293Z,100329.63
2022-10-21T03:09:06.264Z,100329.63
2022-10-21T03:10:08.895Z,100318.94
2022-10-21T03:11:11.492Z,100325.94
2022-10-21T03:12:13.058Z,100320.59
2022-10-21T03:13:15.718Z,100326.78
2022-10-21T03:14:18.572Z,100335.75
2022-10-21T03:15:20.297Z,100325.09
2022-10-21T03:16:22.832Z,100323.25
2022-10-21T03:17:25.433Z,100328.78
2022-10-21T03:18:28.199Z,100326.09
2022-10-21T03:19:31.205Z,100335.94
2022-10-21T03:20:33.820Z,100327.09
2022-10-21T03:21:35.492Z,100325.41
2022-10-21T03:22:38.020Z,100324.41
2022-10-21T03:23:39.848Z,100326.25
2022-10-21T03:24:42.366Z,100334.13
2022-10-21T03:25:43.949Z,100338.59
2022-10-21T03:26:46.534Z,100342.25
2022-10-21T03:27:49.717Z,100336.94
2022-10-21T03:28:52.350Z,100336.94
2022-10-21T03:29:53.904Z,100341.41
2022-10-21T03:30:56.479Z,100333.41
2022-10-21T03:31:58.048Z,100337.94
2022-10-21T03:33:00.530Z,100345.09
2022-10-21T03:34:02.108Z,100338.91
2022-10-21T03:35:07.148Z,100338.91
2022-10-21T03:36:09.956Z,100331.91
2022-10-21T03:37:11.994Z,100337.09
2022-10-21T03:38:14.882Z,100332.75
2022-10-21T03:39:16.655Z,100331.91
2022-10-21T03:40:19.640Z,100337.25
2022-10-21T03:41:21.176Z,100337.25
2022-10-21T03:42:23.681Z,100339.91
2022-10-21T03:43:25.322Z,100337.25
2022-10-21T03:44:27.782Z,100331.91
2022-10-21T03:45:29.310Z,100331.91
2022-10-21T03:46:31.948Z,100327.56
2022-10-21T03:47:33.469Z,100321.22
2022-10-21T03:48:35.952Z,100326.56
2022-10-21T03:49:37.488Z,100321.22
2022-10-21T03:50:41.314Z,100322.91
2022-10-21T03:51:42.829Z,100327.41
2022-10-21T03:52:45.406Z,100326.56
2022-10-21T03:53:46.930Z,100324.59
2022-10-21T03:54:49.406Z,100334.44
2022-10-21T03:55:56.334Z,100335.28
2022-10-21T03:56:59.573Z,100335.28
2022-10-21T03:58:01.115Z,100321.94
2022-10-21T03:59:03.847Z,100324.59
2022-10-21T04:00:06.628Z,100321.94
2022-10-21T04:01:13.663Z,100331.59
2022-10-21T04:02:15.243Z,100329.94
2022-10-21T04:03:17.751Z,100336.94
2022-10-21T04:04:20.344Z,100331.59
2022-10-21T04:05:21.872Z,100331.59
2022-10-21T04:06:25.806Z,100323.44
2022-10-21T04:07:27.533Z,100326.94
2022-10-21T04:08:30.071Z,100327.75
2022-10-21T04:09:31.610Z,100328.59
2022-10-21T04:10:34.070Z,100326.94
2022-10-21T04:11:35.591Z,100322.41
2022-10-21T04:12:38.426Z,100329.63
2022-10-21T04:13:40.164Z,100329.63
2022-10-21T04:14:42.646Z,100326.94
2022-10-21T04:15:45.511Z,100329.63
2022-10-21T04:16:50.511Z,100327.75
2022-10-21T04:18:02.381Z,100327.63
2022-10-21T04:19:04.895Z,100321.44
2022-10-21T04:20:07.798Z,100324.94
2022-10-21T04:21:10.544Z,100334.63
2022-10-21T04:22:13.411Z,100330.94
2022-10-21T04:23:15.914Z,100335.31
2022-10-21T04:24:17.459Z,100332.50
2022-10-21T04:25:20.101Z,100341.31
2022-10-21T04:26:21.668Z,100325.31
2022-10-21T04:27:24.176Z,100326.97
2022-10-21T04:28:25.781Z,100322.63
2022-10-21T04:29:28.263Z,100328.66
2022-10-21T04:30:29.823Z,100335.69
2022-10-21T04:31:32.456Z,100327.69
2022-10-21T04:32:43.840Z,100325.81
2022-10-21T04:33:46.421Z,100320.50
2022-10-21T04:34:47.949Z,100330.19
2022-10-21T04:35:50.416Z,100318.66
2022-10-21T04:36:52.068Z,100329.19
2022-10-21T04:37:55.967Z,100328.03
2022-10-21T04:38:57.507Z,100326.34
2022-10-21T04:39:59.986Z,100330.69
2022-10-21T04:41:03.452Z,100332.38
2022-10-21T04:42:06.011Z,100331.38
2022-10-21T04:43:07.522Z,100331.38
2022-10-21T04:44:10.301Z,100336.72
2022-10-21T04:45:11.815Z,100327.72
2022-10-21T04:46:16.869Z,100331.22
2022-10-21T04:47:18.633Z,100322.38
2022-10-21T04:48:21.236Z,100338.25
2022-10-21T04:49:22.884Z,100330.06
2022-10-21T04:50:25.957Z,100318.41
2022-10-21T04:51:27.771Z,100319.25
2022-10-21T04:52:30.658Z,100321.91
2022-10-21T04:53:33.555Z,100321.75
2022-10-21T04:54:36.071Z,100315.41
2022-10-21T04:55:39.113Z,100318.94
2022-10-21T04:56:41.659Z,100319.75
2022-10-21T04:57:43.182Z,100321.41
2022-10-21T04:58:45.767Z,100310.75
2022-10-21T04:59:47.545Z,100316.09
2022-10-21T05:00:50.873Z,100320.44
2022-10-21T05:01:53.579Z,100320.28
2022-10-21T05:02:55.169Z,100315.75
2022-10-21T05:03:57.788Z,100313.09
2022-10-21T05:04:59.314Z,100315.75
2022-10-21T05:06:01.873Z,100310.41
2022-10-21T05:07:03.595Z,100309.59
2022-10-21T05:08:11.442Z,100313.09
2022-10-21T05:09:15.064Z,100300.75
2022-10-21T05:10:17.802Z,100301.75
2022-10-21T05:11:19.356Z,100305.06
2022-10-21T05:12:22.301Z,100305.06
2022-10-21T05:13:23.852Z,100305.91
2022-10-21T05:14:26.359Z,100303.09
2022-10-21T05:15:27.955Z,100303.09
2022-10-21T05:16:30.436Z,100301.44
2022-10-21T05:17:31.952Z,100292.44
2022-10-21T05:18:34.510Z,100299.41
2022-10-21T05:19:35.987Z,100301.28
2022-10-21T05:20:41.139Z,100293.41
2022-10-21T05:21:42.808Z,100290.94
2022-10-21T05:22:45.316Z,100290.09
2022-10-21T05:23:46.991Z,100285.72
2022-10-21T05:24:50.776Z,100286.72
2022-10-21T05:25:52.397Z,100285.06
2022-10-21T05:26:54.921Z,100289.38
2022-10-21T05:27:56.420Z,100287.72
2022-10-21T05:28:59.492Z,100283.38
2022-10-21T05:30:01.052Z,100282.72
2022-10-21T05:31:03.627Z,100282.72
2022-10-21T05:32:05.665Z,100281.88
2022-10-21T05:33:08.124Z,100281.88
2022-10-21T05:34:10.589Z,100286.38
2022-10-21T05:35:12.320Z,100286.38
2022-10-21T05:36:14.803Z,100281.03
2022-10-21T05:37:16.418Z,100280.19
2022-10-21T05:38:19.036Z,100276.69
2022-10-21T05:39:21.579Z,100271.34
2022-10-21T05:40:24.591Z,100271.19
2022-10-21T05:41:27.211Z,100269.50
2022-10-21T05:42:28.758Z,100259.69
2022-10-21T05:43:31.639Z,100259.69
2022-10-21T05:44:33.319Z,100256.03
2022-10-21T05:45:35.911Z,100258.69
2022-10-21T05:46:38.607Z,100253.34
2022-10-21T05:47:40.970Z,100257.69
2022-10-21T05:48:43.536Z,100256.69
2022-10-21T05:49:45.123Z,100253.03
2022-10-21T05:50:48.351Z,100250.38
2022-10-21T05:51:49.896Z,100249.34
2022-10-21T05:52:53.891Z,100247.38
2022-10-21T05:53:58.667Z,100244.84
2022-10-21T05:55:00.249Z,100251.88
2022-10-21T05:56:05.984Z,100251.69
2022-10-21T05:57:07.649Z,100252.53
2022-10-21T05:58:10.257Z,100251.53
2022-10-21T05:59:12.778Z,100250.56
2022-10-21T06:00:14.581Z,100243.34
2022-10-21T06:01:18.609Z,100251.06
2022-10-21T06:02:20.301Z,100245.72
2022-10-21T06:03:23.642Z,100250.75
2022-10-21T06:04:26.603Z,100247.91
2022-10-21T06:05:31.640Z,100239.75
2022-10-21T06:06:34.568Z,100246.72
2022-10-21T06:07:36.963Z,100251.75
2022-10-21T06:08:40.431Z,100252.59
2022-10-21T06:09:42.118Z,100248.09
2022-10-21T06:10:45.177Z,100248.78
2022-10-21T06:11:49.487Z,100253.94
2022-10-21T06:12:52.202Z,100249.44
2022-10-21T06:13:53.838Z,100244.94
2022-10-21T06:14:56.599Z,100250.09
2022-10-21T06:15:58.969Z,100242.94
2022-10-21T06:17:01.795Z,100251.78
2022-10-21T06:18:04.579Z,100251.63
2022-10-21T06:19:06.163Z,100247.94
2022-10-21T06:20:09.429Z,100253.16
2022-10-21T06:21:11.841Z,100248.78
2022-10-21T06:22:15.865Z,100253.84
2022-10-21T06:23:17.654Z,100246.81
2022-10-21T06:24:20.107Z,100249.34
2022-10-21T06:25:21.807Z,100248.34
2022-10-21T06:26:24.355Z,100244.66
2022-10-21T06:27:27.238Z,100243.66
2022-10-21T06:28:31.694Z,100235.50
2022-10-21T06:29:33.304Z,100240.00
2022-10-21T06:30:36.476Z,100246.19
2022-10-21T06:31:38.037Z,100248.88
2022-10-21T06:32:40.528Z,100250.50
2022-10-21T06:33:42.335Z,100247.84
2022-10-21T06:34:44.863Z,100253.19
2022-10-21T06:35:46.995Z,100241.50
2022-10-21T06:36:49.691Z,100245.84
2022-10-21T06:37:52.220Z,100246.66
2022-10-21T06:38:53.978Z,100254.53
2022-10-21T06:39:56.832Z,100259.88
2022-10-21T06:41:02.089Z,100261.56
2022-10-21T06:42:04.701Z,100258.88
2022-10-21T06:43:07.611Z,100257.88
2022-10-21T06:44:10.063Z,100260.38
2022-10-21T06:45:12.703Z,100260.38
2022-10-21T06:46:15.436Z,100255.72
2022-10-21T06:47:18.113Z,100260.06
2022-10-21T06:48:20.646Z,100260.91
2022-10-21T06:49:22.192Z,100265.25
2022-10-21T06:50:24.796Z,100262.59
2022-10-21T06:51:29.187Z,100262.41
2022-10-21T06:52:31.127Z,100256.06
2022-10-21T06:53:36.559Z,100256.91
2022-10-21T06:54:40.640Z,100258.56
2022-10-21T06:55:43.214Z,100261.22
2022-10-21T06:56:45.950Z,100262.91
2022-10-21T06:57:48.521Z,100264.59
2022-10-21T06:58:52.804Z,100272.63
2022-10-21T06:59:54.333Z,100269.09
2022-10-21T07:00:56.840Z,100261.94
2022-10-21T07:02:00.909Z,100263.56
2022-10-21T07:03:03.740Z,100272.44
2022-10-21T07:04:06.997Z,100279.47
2022-10-21T07:05:10.355Z,100276.59
2022-10-21T07:06:12.305Z,100275.63
2022-10-21T07:07:15.353Z,100274.78
2022-10-21T07:08:19.820Z,100270.28
2022-10-21T07:09:25.302Z,100271.94
2022-10-21T07:10:26.867Z,100276.31
2022-10-21T07:11:29.797Z,100282.31
2022-10-21T07:12:32.522Z,100282.31
2022-10-21T07:13:35.376Z,100293.84
2022-10-21T07:14:39.227Z,100288.50
2022-10-21T07:15:40.756Z,100296.34
2022-10-21T07:16:43.510Z,100296.19
2022-10-21T07:17:46.570Z,100303.22
2022-10-21T07:18:49.137Z,100306.53
2022-10-21T07:19:50.687Z,100309.03
2022-10-21T07:20:53.203Z,100312.56
2022-10-21T07:21:55.865Z,100321.25
2022-10-21T07:22:58.495Z,100334.44
2022-10-21T07:24:00.716Z,100337.81
2022-10-21T07:25:04.873Z,100327.13
2022-10-21T07:26:07.527Z,100333.13
2022-10-21T07:27:10.021Z,100340.16
2022-10-21T07:28:11.640Z,100353.53
2022-10-21T07:29:14.257Z,100347.00
2022-10-21T07:30:17.615Z,100346.81
2022-10-21T07:31:21.849Z,100345.81
2022-10-21T07:32:23.412Z,100344.16
2022-10-21T07:33:26.045Z,100356.53
2022-10-21T07:34:28.692Z,100346.66
2022-10-21T07:35:30.253Z,100355.53
2022-10-21T07:36:35.154Z,100347.50
2022-10-21T07:37:37.063Z,100349.19
2022-10-21T07:38:41.164Z,100349.19
2022-10-21T07:39:42.734Z,100357.88
2022-10-21T07:40:45.663Z,100351.53
2022-10-21T07:41:49.273Z,100353.19
2022-10-21T07:42:51.779Z,100354.03
2022-10-21T07:43:55.066Z,100362.88
2022-10-21T07:44:59.362Z,100355.72
2022-10-21T07:46:06.101Z,100352.19
2022-10-21T07:47:09.617Z,100357.41
2022-10-21T07:48:11.152Z,100355.53
2022-10-21T07:49:15.034Z,100357.41
2022-10-21T07:50:17.942Z,100351.03
2022-10-21T07:51:26.884Z,100355.53
2022-10-21T07:52:33.705Z,100359.88
2022-10-21T07:53:38.661Z,100353.69
2022-10-21T07:54:41.199Z,100353.53
2022-10-21T07:55:42.731Z,100353.53
2022-10-21T07:56:47.480Z,100362.41
2022-10-21T07:57:49.057Z,100359.75
2022-10-21T07:58:52.442Z,100365.75
2022-10-21T07:59:55.029Z,100363.91
2022-10-21T08:00:58.473Z,100353.22
2022-10-21T08:02:02.450Z,100353.22
2022-10-21T08:03:03.944Z,100344.19
2022-10-21T08:04:07.404Z,100346.88
2022-10-21T08:05:10.294Z,100344.19
2022-10-21T08:06:13.690Z,100347.53
2022-10-21T08:07:16.250Z,100344.03
2022-10-21T08:08:21.596Z,100347.53
2022-10-21T08:09:24.085Z,100350.22
2022-10-21T08:10:25.613Z,100351.91
2022-10-21T08:11:30.613Z,100351.91
2022-10-21T08:12:32.169Z,100355.38
2022-10-21T08:13:34.879Z,100353.53
2022-10-21T08:14:37.492Z,100359.72
2022-10-21T08:15:41.928Z,100359.72
2022-10-21T08:16:44.413Z,100359.72
2022-10-21T08:17:48.285Z,100354.38
2022-10-21T08:18:50.018Z,100363.25
2022-10-21T08:19:58.620Z,100357.06
2022-10-21T08:21:02.661Z,100357.06
2022-10-21T08:22:06.337Z,100364.25
2022-10-21T08:23:08.087Z,100357.06
2022-10-21T08:24:10.725Z,100357.06
2022-10-21T08:25:16.576Z,100368.59
2022-10-21T08:26:21.230Z,100367.75
2022-10-21T08:27:23.689Z,100370.28
2022-10-21T08:28:27.159Z,100372.94
2022-10-21T08:29:29.662Z,100367.59
2022-10-21T08:30:31.810Z,100375.63
2022-10-21T08:31:35.980Z,100371.94
2022-10-21T08:32:38.779Z,100372.94
2022-10-21T08:33:44.059Z,100371.94
2022-10-21T08:34:46.660Z,100367.59
2022-10-21T08:35:48.221Z,100369.44
2022-10-21T08:36:50.957Z,100363.09
2022-10-21T08:37:52.555Z,100358.56
2022-10-21T08:38:55.595Z,100360.25
2022-10-21T08:39:57.192Z,100359.25
2022-10-21T08:41:00.823Z,100364.59
2022-10-21T08:42:08.073Z,100353.91
2022-10-21T08:43:15.695Z,100354.91
2022-10-21T08:44:42.790Z,100356.72
2022-10-21T08:45:49.302Z,100358.56
2022-10-21T08:46:58.377Z,100357.56
2022-10-21T08:48:06.534Z,100358.41
2022-10-21T08:49:16.340Z,100358.41
2022-10-21T08:50:22.680Z,100362.91
2022-10-21T08:51:29.568Z,100361.09
2022-10-21T08:52:40.864Z,100368.25
2022-10-21T08:53:48.666Z,100362.06
2022-10-21T08:54:56.079Z,100362.91
2022-10-21T08:56:03.261Z,100361.22
2022-10-21T08:57:05.155Z,100362.06
2022-10-21T08:58:16.233Z,100360.25
2022-10-21T08:59:21.756Z,100365.59
2022-10-21T09:00:26.884Z,100368.25
2022-10-21T09:01:34.444Z,100358.41
2022-10-21T09:02:47.451Z,100354.06
2022-10-21T09:03:55.938Z,100362.06
2022-10-21T09:05:19.742Z,100363.91
2022-10-21T09:06:25.713Z,100365.78
2022-10-21T09:07:36.231Z,100361.22
2022-10-21T09:08:47.374Z,100363.09
2022-10-21T09:09:55.677Z,100374.47
2022-10-21T09:11:02.382Z,100364.59
2022-10-21T09:12:09.869Z,100372.63
2022-10-21T09:13:17.528Z,100368.13
2022-10-21T09:14:43.419Z,100364.59
2022-10-21T09:15:56.571Z,100365.25
2022-10-21T09:17:06.139Z,100367.94
2022-10-21T09:18:22.415Z,100367.59
2022-10-21T09:19:35.571Z,100370.97
2022-10-21T09:20:56.040Z,100371.63
2022-10-21T09:22:34.318Z,100377.63
2022-10-21T09:23:52.896Z,100375.66
2022-10-21T09:25:04.848Z,100384.34
2022-10-21T09:26:23.384Z,100385.69
2022-10-21T09:27:54.806Z,100387.19
2022-10-21T09:28:51.657Z,100387.84
2022-10-21T09:29:58.766Z,100381.38
2022-10-21T09:31:04.864Z,100387.38
2022-10-21T09:32:15.638Z,100382.03
2022-10-21T09:33:24.086Z,100383.72
2022-10-21T09:34:38.968Z,100383.72
2022-10-21T09:35:48.043Z,100377.53
2022-10-21T09:36:52.297Z,100384.38
2022-10-21T09:37:58.467Z,100374.50
2022-10-21T09:39:03.182Z,100379.03
2022-10-21T09:40:16.070Z,100378.19
2022-10-21T09:42:42.707Z,100378.38
2022-10-21T09:43:48.671Z,100376.69
2022-10-21T09:44:51.543Z,100390.06
2022-10-21T09:45:55.157Z,100395.41
2022-10-21T09:46:56.709Z,100405.13
2022-10-21T09:48:01.615Z,100407.94
2022-10-21T09:50:27.634Z,100414.31
2022-10-21T09:51:34.944Z,100403.63
2022-10-21T09:52:37.952Z,100399.09
2022-10-21T09:53:52.928Z,100397.09
2022-10-21T09:54:57.696Z,100389.06
2022-10-21T09:56:03.714Z,100387.22
2022-10-21T09:57:16.713Z,100395.25
2022-10-21T09:58:26.782Z,100399.78
2022-10-21T09:59:32.886Z,100407.78
2022-10-21T10:00:45.593Z,100416.81
2022-10-21T10:01:49.910Z,100425.50
2022-10-21T10:02:51.673Z,100426.53
2022-10-21T10:03:54.920Z,100435.41
2022-10-21T10:04:56.832Z,100436.22
2022-10-21T10:05:59.846Z,100419.34
2022-10-21T10:07:19.371Z,100421.00
2022-10-21T10:08:29.410Z,100418.50
2022-10-21T10:09:33.896Z,100413.16
2022-10-21T10:10:35.408Z,100416.81
2022-10-21T10:11:50.206Z,100421.19
2022-10-21T10:12:56.885Z,100423.84
2022-10-21T10:14:17.761Z,100415.97
2022-10-21T10:15:29.316Z,100409.78
2022-10-21T10:16:34.113Z,100409.78
2022-10-21T10:17:39.644Z,100425.84
2022-10-21T10:18:42.110Z,100426.69
2022-10-21T10:19:44.723Z,100438.22
2022-10-21T10:20:46.239Z,100436.53
2022-10-21T10:22:10.736Z,100431.19
2022-10-21T10:23:19.921Z,100435.72
2022-10-21T10:24:22.845Z,100436.69
2022-10-21T10:25:28.442Z,100434.88
2022-10-21T10:26:34.165Z,100421.50
2022-10-21T10:27:36.503Z,100434.88
2022-10-21T10:28:39.234Z,100430.38
2022-10-21T10:29:42.517Z,100429.34
2022-10-21T10:30:49.452Z,100433.88
2022-10-21T10:31:55.406Z,100442.72
2022-10-21T10:32:58.243Z,100441.88
2022-10-21T10:34:04.546Z,100441.09
2022-10-21T10:35:15.279Z,100449.09
2022-10-21T10:36:28.654Z,100450.06
2022-10-21T10:37:36.166Z,100447.25
2022-10-21T10:38:42.078Z,100445.59
2022-10-21T10:39:49.210Z,100445.59
2022-10-21T10:40:54.207Z,100445.41
2022-10-21T10:41:59.852Z,100448.94
2022-10-21T10:43:07.092Z,100442.59
2022-10-21T10:44:12.451Z,100438.22
2022-10-21T10:45:20.258Z,100443.25
2022-10-21T10:46:25.606Z,100445.91
2022-10-21T10:47:31.597Z,100434.22
2022-10-21T10:48:37.631Z,100434.22
2022-10-21T10:49:43.720Z,100435.72
2022-10-21T10:50:47.220Z,100439.25
2022-10-21T10:52:04.224Z,100449.63
2022-10-21T10:53:24.664Z,100443.94
2022-10-21T10:54:29.303Z,100451.63
2022-10-21T10:55:33.909Z,100450.63
2022-10-21T10:56:42.195Z,100444.09
2022-10-21T10:57:58.986Z,100439.59
2022-10-21T10:59:16.951Z,100440.25
2022-10-21T11:00:21.079Z,100441.09
2022-10-21T11:01:27.888Z,100437.41
2022-10-21T11:02:38.977Z,100442.59
2022-10-21T11:03:45.815Z,100442.59
2022-10-21T11:05:07.915Z,100445.09
2022-10-21T11:06:17.371Z,100447.59
2022-10-21T11:07:26.644Z,100442.09
2022-10-21T11:08:35.197Z,100434.91
2022-10-21T11:09:38.363Z,100439.94
2022-10-21T11:10:44.600Z,100436.91
2022-10-21T11:11:49.425Z,100439.25
2022-10-21T11:12:50.965Z,100436.09
2022-10-21T11:13:54.444Z,100440.91
2022-10-21T11:14:58.378Z,100435.91
2022-10-21T11:16:12.389Z,100438.25
2022-10-21T11:17:19.994Z,100438.41
2022-10-21T11:18:29.108Z,100441.25
2022-10-21T11:19:41.189Z,100437.03
2022-10-21T11:20:54.079Z,100438.38
2022-10-21T11:22:06.259Z,100429.00
2022-10-21T11:23:29.035Z,100433.84
2022-10-21T11:24:55.239Z,100434.50
2022-10-21T11:26:03.981Z,100431.50
2022-10-21T11:27:13.486Z,100423.09
2022-10-21T11:28:27.433Z,100436.19
2022-10-21T11:29:40.787Z,100433.31
2022-10-21T11:30:58.256Z,100424.28
2022-10-21T11:32:12.649Z,100429.66
2022-10-21T11:33:26.357Z,100428.47
2022-10-21T11:34:40.317Z,100423.59
2022-10-21T11:35:54.267Z,100421.41
2022-10-21T11:37:06.656Z,100415.03
2022-10-21T11:38:30.482Z,100420.06
2022-10-21T11:39:43.030Z,100419.06
2022-10-21T11:40:49.865Z,100426.75
2022-10-21T11:42:01.138Z,100426.41
2022-10-21T11:43:16.390Z,100420.69
2022-10-21T11:44:29.630Z,100417.81
2022-10-21T11:45:39.607Z,100417.47
2022-10-21T11:46:53.453Z,100423.31
2022-10-21T11:48:02.459Z,100420.47
2022-10-21T11:49:18.783Z,100420.13
2022-10-21T11:50:32.381Z,100424.97
2022-10-21T11:51:43.261Z,100428.97
2022-10-21T11:53:11.546Z,100424.28
2022-10-21T11:54:37.136Z,100421.59
2022-10-21T11:55:50.456Z,100426.78
2022-10-21T11:56:59.375Z,100421.91
2022-10-21T11:58:13.340Z,100429.59
2022-10-21T11:59:27.136Z,100420.19
2022-10-21T12:00:38.052Z,100416.16
2022-10-21T12:01:48.599Z,100417.47
2022-10-21T12:03:14.409Z,100415.44
2022-10-21T12:04:26.132Z,100409.72
2022-10-21T12:05:32.605Z,100408.34
2022-10-21T12:06:38.748Z,100400.94
2022-10-21T12:07:58.446Z,100402.63
2022-10-21T12:09:03.702Z,100408.63
2022-10-21T12:10:13.467Z,100409.31
2022-10-21T12:11:21.842Z,100404.59
2022-10-21T12:12:30.055Z,100408.59
2022-10-21T12:13:36.841Z,100402.34
2022-10-21T12:14:42.341Z,100399.16
2022-10-21T12:15:49.375Z,100395.72
2022-10-21T12:16:53.715Z,100394.72
2022-10-21T12:17:57.661Z,100394.53
2022-10-21T12:19:05.478Z,100392.31
2022-10-21T12:20:18.071Z,100394.38
2022-10-21T12:21:26.882Z,100397.06
2022-10-21T12:22:33.047Z,100395.00
2022-10-21T12:23:34.799Z,100391.97
2022-10-21T12:24:48.388Z,100389.75
2022-10-21T12:26:04.724Z,100391.28
2022-10-21T12:27:18.371Z,100399.97
2022-10-21T12:28:29.119Z,100402.28
2022-10-21T12:29:44.447Z,100393.03
2022-10-21T12:30:54.847Z,100401.75
2022-10-21T12:32:06.180Z,100398.03
2022-10-21T12:33:17.050Z,100391.50
2022-10-21T12:34:19.773Z,100393.13